Time;durP1;ratioP1;P1;durP2;ratioP2;P2;SDS_P1;SDS_P2;PMS_P1;PMS_P2;Temp;Humidity;BMP_temperature;BMP_pressure;BME280_temperature;BME280_humidity;BME280_pressure;Samples;Min_cycle;Max_cycle;Signal;HPM_P1;HPM_P2
2024/01/09 00:16:44;;;;;;;17.07;8.13;;;;;;;;;;20984653;28;20539;-71
2024/01/09 00:26:46;;;;;;;16.57;7.97;;;;;;;;;;20983467;28;20667;-71
2024/01/09 00:36:48;;;;;;;17.73;8.27;;;;;;;;;;20983141;28;20257;-71
2024/01/09 00:46:50;;;;;;;18.03;7.83;;;;;;;;;;20982240;28;20287;-71
2024/01/09 01:01:38;;;;;;;18.63;8.10;;;;;;;;;;20984682;28;20566;-70
2024/01/09 01:11:40;;;;;;;13.83;6.83;;;;;;;;;;20983793;28;20291;-70
2024/01/09 01:21:42;;;;;;;19.67;8.00;;;;;;;;;;20983336;28;20217;-70
2024/01/09 01:31:45;;;;;;;14.77;7.30;;;;;;;;;;20982412;28;20208;-69
2024/01/09 01:41:47;;;;;;;14.17;7.33;;;;;;;;;;20982792;28;20297;-70
2024/01/09 02:02:18;;;;;;;20.17;7.83;;;;;;;;;;21069052;28;20510;-70
2024/01/09 02:12:20;;;;;;;15.80;7.47;;;;;;;;;;21067426;28;20207;-70
2024/01/09 02:22:22;;;;;;;14.53;6.93;;;;;;;;;;21066726;28;20212;-69
2024/01/09 02:32:25;;;;;;;16.97;7.13;;;;;;;;;;21066081;28;20575;-71
2024/01/09 02:42:27;;;;;;;14.33;7.00;;;-1.70;56.40;;;;;;21064808;28;20208;-70
2024/01/09 02:52:29;;;;;;;14.07;6.73;;;;;;;;;;21062567;28;20266;-70
2024/01/09 03:02:31;;;;;;;13.50;6.97;;;;;;;;;;21063938;28;20214;-70
2024/01/09 03:12:34;;;;;;;14.37;6.90;;;;;;;;;;21012988;28;20209;-70
2024/01/09 03:22:36;;;;;;;14.50;6.60;;;;;;;;;;21006045;28;20205;-70
2024/01/09 03:32:38;;;;;;;12.23;6.63;;;;;;;;;;21005471;28;20216;-70
2024/01/09 03:42:40;;;;;;;13.27;6.87;;;;;;;;;;21004405;28;20217;-70
2024/01/09 03:52:42;;;;;;;14.77;6.80;;;;;;;;;;21003336;28;20242;-69
2024/01/09 04:02:44;;;;;;;16.17;7.10;;;;;;;;;;21002383;28;20240;-70
2024/01/09 04:12:47;;;;;;;15.17;7.10;;;;;;;;;;20996343;28;20233;-71
2024/01/09 04:22:49;;;;;;;14.87;7.33;;;;;;;;;;20917533;28;20296;-70
2024/01/09 04:32:51;;;;;;;15.10;7.73;;;;;;;;;;20917822;28;20228;-70
2024/01/09 04:42:53;;;;;;;13.23;6.93;;;;;;;;;;20916950;28;20442;-70
2024/01/09 04:52:55;;;;;;;16.17;7.50;;;;;;;;;;20915925;28;20334;-71
2024/01/09 05:02:57;;;;;;;14.37;6.73;;;;;;;;;;20933188;28;20565;-71
2024/01/09 05:13:00;;;;;;;14.50;6.57;;;;;;;;;;20924278;28;20228;-71
2024/01/09 05:23:02;;;;;;;15.40;7.10;;;;;;;;;;20985691;28;20675;-71
2024/01/09 05:43:16;;;;;;;15.50;6.87;;;;;;;;;;20984115;28;20598;-71
2024/01/09 05:53:18;;;;;;;16.73;7.23;;;;;;;;;;20849659;28;20221;-71
2024/01/09 06:03:20;;;;;;;11.87;6.60;;;;;;;;;;20855900;28;20217;-73
2024/01/09 06:13:23;;;;;;;15.00;7.33;;;;;;;;;;20817164;28;20210;-71
2024/01/09 06:23:25;;;;;;;14.50;7.50;;;;;;;;;;20830094;28;20217;-69
2024/01/09 06:40:37;;;;;;;14.83;6.83;;;;;;;;;;20984831;28;20562;-69
2024/01/09 06:50:40;;;;;;;13.07;6.83;;;;;;;;;;20985200;28;20572;-69
2024/01/09 07:00:43;;;;;;;12.87;7.00;;;;;;;;;;20982747;28;20216;-69
2024/01/09 07:10:45;;;;;;;12.43;6.70;;;;;;;;;;20980230;28;20266;-69
2024/01/09 07:20:47;;;;;;;16.43;7.03;;;;;;;;;;20979810;28;20724;-69
2024/01/09 07:30:52;;;;;;;14.83;7.23;;;;;;;;;;20980546;28;20629;-71
2024/01/09 07:40:54;;;;;;;15.13;7.40;;;;;;;;;;20977735;28;20301;-71
2024/01/09 07:51:01;;;;;;;12.33;6.73;;;;;;;;;;20929107;28;20237;-69
2024/01/09 08:01:04;;;;;;;14.73;6.87;;;;;;;;;;20922767;28;20240;-69
2024/01/09 08:11:06;;;;;;;13.37;6.33;;;;;;;;;;20921916;28;20311;-72
2024/01/09 08:21:10;;;;;;;13.63;6.90;;;;;;;;;;20921668;28;20234;-69
2024/01/09 08:31:12;;;;;;;14.23;6.40;;;;;;;;;;20920716;28;20247;-69
2024/01/09 08:41:17;;;;;;;11.90;6.30;;;;;;;;;;20919648;28;20217;-70
2024/01/09 08:51:19;;;;;;;13.83;7.03;;;;;;;;;;20919200;28;20247;-70
2024/01/09 09:01:32;;;;;;;;;;;;;;;;;;;;;
2024/01/09 09:11:36;;;;;;;16.33;6.90;;;;;;;;;;21112402;27;1200188;-71
2024/01/09 09:21:38;;;;;;;13.97;6.43;;;;;;;;;;21069787;28;20216;-71
2024/01/09 09:31:40;;;;;;;15.10;7.27;;;;;;;;;;21066454;28;20212;-71
2024/01/09 09:41:47;;;;;;;17.30;7.10;;;;;;;;;;21065056;28;20240;-69
2024/01/09 09:51:50;;;;;;;13.23;6.73;;;-0.50;49.90;;;;;;21064475;28;20216;-69
2024/01/09 10:01:52;;;;;;;15.73;6.63;;;;;;;;;;21064221;28;20714;-69
2024/01/09 10:11:55;;;;;;;13.27;6.53;;;;;;;;;;21064275;28;20217;-69
2024/01/09 10:21:57;;;;;;;12.93;6.73;;;;;;;;;;21012055;28;20735;-70
2024/01/09 10:31:59;;;;;;;13.03;6.13;;;;;;;;;;21005898;28;20630;-69
2024/01/09 10:42:12;;;;;;;14.67;6.17;;;0.20;46.00;;;;;;21004716;28;20659;-69
2024/01/09 10:52:15;;;;;;;11.07;6.00;;;0.40;46.00;;;;;;21004149;28;20626;-69
2024/01/09 11:02:22;;;;;;;11.63;6.33;;;0.60;45.80;;;;;;21003277;28;20240;-69
2024/01/09 11:12:30;;;;;;;14.47;6.47;;;0.70;45.50;;;;;;21002607;28;20629;-69
2024/01/09 11:22:39;;;;;;;10.23;6.00;;;0.90;44.80;;;;;;21001622;28;20320;-69
2024/01/09 11:32:41;;;;;;;12.30;6.07;;;;;;;;;;21000673;28;20214;-69
2024/01/09 11:42:49;;;;;;;12.50;6.57;;;1.10;44.00;;;;;;21000699;28;20634;-69
2024/01/09 11:52:50;;;;;;;13.93;6.17;;;1.30;43.60;;;;;;20998970;28;20294;-69
2024/01/09 12:02:52;;;;;;;9.27;5.67;;;1.50;43.20;;;;;;20998145;28;20357;-72
2024/01/09 12:13:01;;;;;;;11.40;5.77;;;1.60;42.50;;;;;;20996130;28;20199;-70
2024/01/09 12:23:04;;;;;;;12.43;6.13;;;2.00;42.60;;;;;;20987655;28;20318;-70
2024/01/09 12:33:06;;;;;;;15.67;6.27;;;;;;;;;;20953510;28;20215;-67
2024/01/09 12:43:09;;;;;;;13.93;6.63;;;;;;;;;;20960288;28;20243;-66
2024/01/09 12:53:11;;;;;;;11.53;6.03;;;;;;;;;;20946774;28;20299;-67
2024/01/09 13:03:14;;;;;;;13.60;6.07;;;;;;;;;;20953861;28;20672;-69
2024/01/09 13:23:32;;;;;;;12.10;6.53;;;;;;;;;;21083480;27;20563;-71
2024/01/09 13:33:37;;;;;;;13.47;6.77;;;;;;;;;;21067334;28;20211;-68
2024/01/09 13:53:15;;;;;;;14.03;6.50;;;;;;;;;;21151703;27;20577;-68
2024/01/09 14:03:18;;;;;;;12.23;6.33;;;;;;;;;;21151355;28;20199;-68
2024/01/09 14:13:20;;;;;;;13.30;6.97;;;;;;;;;;21150039;28;20206;-71
